createdAt,value
2022-11-25T00:00:14.943Z,7.20
2022-11-25T00:01:20.364Z,7.20
2022-11-25T00:02:22.638Z,7.20
2022-11-25T00:03:25.738Z,7.20
2022-11-25T00:04:29.249Z,7.10
2022-11-25T00:05:32.169Z,7.20
2022-11-25T00:06:35.414Z,7.20
2022-11-25T00:07:38.954Z,7.20
2022-11-25T00:08:42.146Z,7.20
2022-11-25T00:09:45.063Z,7.20
2022-11-25T00:10:47.057Z,7.20
2022-11-25T00:11:51.357Z,7.10
2022-11-25T00:12:53.295Z,7.10
2022-11-25T00:13:57.528Z,7.10
2022-11-25T00:14:59.474Z,7.10
2022-11-25T00:16:04.022Z,7.00
2022-11-25T00:17:06.130Z,6.90
2022-11-25T00:18:09.091Z,7.00
2022-11-25T00:19:11.631Z,7.00
2022-11-25T00:20:14.710Z,7.00
2022-11-25T00:21:19.208Z,7.10
2022-11-25T00:22:22.106Z,7.00
2022-11-25T00:23:26.074Z,7.10
2022-11-25T00:24:32.086Z,7.10
2022-11-25T00:25:34.056Z,7.00
2022-11-25T00:26:37.864Z,7.10
2022-11-25T00:27:41.136Z,7.10
2022-11-25T00:28:45.766Z,7.10
2022-11-25T00:29:47.723Z,7.10
2022-11-25T00:30:50.637Z,7.00
2022-11-25T00:31:53.627Z,7.00
2022-11-25T00:32:55.644Z,7.00
2022-11-25T00:33:58.625Z,7.00
2022-11-25T00:35:00.543Z,7.00
2022-11-25T00:36:03.589Z,7.10
2022-11-25T00:37:06.545Z,7.00
2022-11-25T00:38:08.477Z,7.00
2022-11-25T00:39:13.664Z,7.00
2022-11-25T00:40:15.663Z,7.00
2022-11-25T00:41:35.841Z,7.00
2022-11-25T00:42:56.328Z,7.00
2022-11-25T00:44:18.106Z,7.00
2022-11-25T00:45:21.108Z,7.10
2022-11-25T00:46:23.126Z,7.00
2022-11-25T00:47:26.096Z,7.10
2022-11-25T00:48:28.024Z,7.00
2022-11-25T00:49:30.948Z,7.10
2022-11-25T00:50:32.925Z,7.00
2022-11-25T00:51:36.008Z,7.00
2022-11-25T00:52:38.940Z,7.00
2022-11-25T00:53:40.929Z,7.00
2022-11-25T00:54:44.652Z,6.90
2022-11-25T00:56:05.177Z,7.00
2022-11-25T00:57:08.123Z,6.90
2022-11-25T00:58:10.070Z,7.00
2022-11-25T00:59:14.409Z,7.00
2022-11-25T01:00:17.746Z,7.00
2022-11-25T01:01:19.758Z,6.90
2022-11-25T01:02:23.357Z,7.00
2022-11-25T01:03:25.373Z,6.90
2022-11-25T01:04:28.392Z,6.90
2022-11-25T01:05:30.360Z,6.80
2022-11-25T01:06:33.287Z,6.80
2022-11-25T01:07:35.297Z,6.70
2022-11-25T01:08:39.853Z,6.70
2022-11-25T01:09:42.803Z,6.70
2022-11-25T01:10:44.769Z,6.80
2022-11-25T01:11:47.712Z,6.90
2022-11-25T01:12:49.623Z,6.80
2022-11-25T01:14:00.658Z,6.80
2022-11-25T01:15:05.539Z,6.80
2022-11-25T01:16:18.906Z,6.80
2022-11-25T01:17:20.888Z,6.90
2022-11-25T01:18:23.901Z,6.90
2022-11-25T01:19:25.979Z,6.90
2022-11-25T01:20:28.905Z,6.90
2022-11-25T01:21:32.461Z,6.90
2022-11-25T01:22:35.401Z,6.90
2022-11-25T01:23:37.367Z,6.80
2022-11-25T01:24:40.331Z,6.80
2022-11-25T01:25:42.305Z,6.80
2022-11-25T01:26:46.001Z,6.70
2022-11-25T01:27:48.900Z,7.10
2022-11-25T01:28:54.780Z,6.70
2022-11-25T01:29:57.881Z,6.80
2022-11-25T01:31:02.857Z,6.70
2022-11-25T01:32:06.252Z,6.70
2022-11-25T01:33:08.272Z,6.80
2022-11-25T01:34:15.007Z,6.80
2022-11-25T01:35:16.943Z,6.80
2022-11-25T01:36:20.036Z,6.90
2022-11-25T01:37:23.001Z,6.80
2022-11-25T01:38:24.960Z,6.80
2022-11-25T01:39:32.387Z,6.80
2022-11-25T01:40:36.312Z,6.70
2022-11-25T01:41:39.290Z,6.70
2022-11-25T01:42:43.653Z,6.60
2022-11-25T01:44:05.141Z,6.70
2022-11-25T01:45:38.782Z,6.70
2022-11-25T01:46:54.107Z,6.30
2022-11-25T01:48:01.945Z,6.60
2022-11-25T01:49:12.119Z,6.60
2022-11-25T01:50:17.956Z,6.60
2022-11-25T01:51:26.152Z,6.70
2022-11-25T01:52:31.656Z,6.60
2022-11-25T01:53:34.784Z,6.70
2022-11-25T01:54:43.927Z,6.60
2022-11-25T01:55:53.018Z,6.60
2022-11-25T01:56:58.475Z,6.60
2022-11-25T01:58:06.737Z,6.50
2022-11-25T01:59:08.845Z,6.40
2022-11-25T02:00:13.158Z,6.50
2022-11-25T02:01:16.523Z,6.40
2022-11-25T02:02:22.287Z,6.50
2022-11-25T02:03:31.733Z,6.40
2022-11-25T02:04:38.681Z,6.40
2022-11-25T02:05:48.527Z,6.40
2022-11-25T02:06:57.114Z,6.50
2022-11-25T02:07:59.805Z,6.40
2022-11-25T02:09:05.887Z,6.40
2022-11-25T02:10:13.895Z,6.50
2022-11-25T02:11:17.959Z,6.60
2022-11-25T02:12:22.755Z,6.60
2022-11-25T02:13:24.868Z,6.60
2022-11-25T02:14:28.071Z,6.50
2022-11-25T02:15:33.947Z,6.50
2022-11-25T02:16:37.051Z,6.50
2022-11-25T02:17:40.816Z,6.50
2022-11-25T02:18:43.895Z,6.50
2022-11-25T02:19:58.770Z,6.40
2022-11-25T02:21:01.803Z,6.40
2022-11-25T02:22:10.303Z,6.40
2022-11-25T02:23:22.117Z,6.30
2022-11-25T02:24:30.220Z,6.40
2022-11-25T02:25:36.203Z,6.40
2022-11-25T02:26:38.551Z,6.40
2022-11-25T02:27:42.369Z,6.30
2022-11-25T02:28:45.712Z,6.30
2022-11-25T02:29:49.670Z,6.20
2022-11-25T02:30:53.198Z,6.30
2022-11-25T02:31:55.237Z,6.40
2022-11-25T02:32:59.849Z,6.40
2022-11-25T02:34:01.826Z,6.40
2022-11-25T02:35:28.287Z,6.50
2022-11-25T02:36:31.236Z,6.40
2022-11-25T02:37:33.164Z,6.40
2022-11-25T02:38:40.661Z,6.40
2022-11-25T02:39:43.058Z,6.40
2022-11-25T02:40:52.867Z,6.40
2022-11-25T02:41:58.053Z,6.40
2022-11-25T02:43:01.916Z,6.50
2022-11-25T02:44:04.929Z,6.50
2022-11-25T02:45:13.141Z,6.50
2022-11-25T02:46:22.234Z,6.50
2022-11-25T02:47:24.586Z,6.50
2022-11-25T02:49:00.830Z,6.60
2022-11-25T02:49:52.336Z,6.60
2022-11-25T02:50:55.658Z,6.70
2022-11-25T02:51:57.675Z,6.60
2022-11-25T02:53:00.658Z,6.60
2022-11-25T02:54:03.620Z,6.60
2022-11-25T02:55:06.459Z,6.50
2022-11-25T02:56:12.354Z,6.50
2022-11-25T02:57:14.268Z,6.60
2022-11-25T02:58:17.593Z,6.60
2022-11-25T02:59:19.585Z,6.50
2022-11-25T03:00:22.914Z,6.60
2022-11-25T03:01:25.048Z,6.60
2022-11-25T03:02:28.063Z,6.60
2022-11-25T03:03:30.105Z,6.60
2022-11-25T03:04:33.324Z,6.50
2022-11-25T03:05:35.336Z,6.60
2022-11-25T03:06:38.323Z,6.60
2022-11-25T03:07:40.306Z,6.60
2022-11-25T03:08:43.404Z,6.60
2022-11-25T03:09:45.356Z,6.60
2022-11-25T03:10:48.300Z,6.50
2022-11-25T03:12:09.943Z,6.50
2022-11-25T03:13:11.846Z,6.50
2022-11-25T03:14:14.854Z,6.50
2022-11-25T03:15:17.434Z,6.60
2022-11-25T03:16:20.401Z,6.70
2022-11-25T03:17:22.456Z,6.70
2022-11-25T03:18:25.383Z,6.60
2022-11-25T03:19:27.371Z,6.70
2022-11-25T03:20:30.461Z,6.60
2022-11-25T03:21:33.217Z,6.60
2022-11-25T03:22:36.219Z,6.70
2022-11-25T03:23:38.169Z,6.60
2022-11-25T03:24:41.109Z,6.60
2022-11-25T03:25:44.103Z,6.60
2022-11-25T03:26:46.068Z,6.60
2022-11-25T03:27:50.427Z,6.60
2022-11-25T03:28:52.451Z,6.60
2022-11-25T03:29:55.412Z,6.60
2022-11-25T03:30:57.413Z,6.60
2022-11-25T03:32:01.694Z,6.60
2022-11-25T03:33:06.276Z,6.60
2022-11-25T03:34:08.207Z,6.60
2022-11-25T03:35:11.924Z,6.50
2022-11-25T03:36:13.876Z,6.60
2022-11-25T03:37:16.871Z,6.60
2022-11-25T03:38:18.811Z,6.70
2022-11-25T03:39:21.692Z,6.70
2022-11-25T03:40:23.744Z,6.70
2022-11-25T03:41:26.648Z,6.80
2022-11-25T03:42:28.671Z,6.80
2022-11-25T03:43:33.042Z,6.70
2022-11-25T03:44:35.351Z,6.70
2022-11-25T03:45:38.393Z,6.70
2022-11-25T03:46:40.430Z,6.80
2022-11-25T03:47:44.245Z,6.80
2022-11-25T03:48:46.268Z,6.70
2022-11-25T03:49:49.235Z,6.70
2022-11-25T03:50:51.232Z,6.80
2022-11-25T03:51:54.229Z,6.80
2022-11-25T03:52:56.233Z,6.70
2022-11-25T03:53:59.235Z,6.60
2022-11-25T03:55:01.277Z,6.60
2022-11-25T03:56:04.745Z,6.70
2022-11-25T03:57:06.722Z,6.70
2022-11-25T03:58:09.685Z,6.80
2022-11-25T03:59:13.021Z,6.70
2022-11-25T04:00:16.357Z,6.70
2022-11-25T04:01:18.404Z,6.70
2022-11-25T04:02:21.410Z,6.70
2022-11-25T04:03:23.428Z,6.60
2022-11-25T04:04:26.552Z,6.60
2022-11-25T04:05:28.541Z,6.60
2022-11-25T04:06:32.087Z,6.70
2022-11-25T04:07:34.193Z,6.60
2022-11-25T04:08:37.272Z,6.70
2022-11-25T04:09:39.180Z,6.60
2022-11-25T04:10:42.127Z,6.60
2022-11-25T04:12:03.996Z,6.70
2022-11-25T04:13:05.993Z,6.60
2022-11-25T04:14:07.908Z,6.60
2022-11-25T04:15:12.792Z,6.70
2022-11-25T04:16:22.955Z,6.70
2022-11-25T04:17:25.968Z,6.70
2022-11-25T04:18:27.922Z,6.70
2022-11-25T04:19:30.848Z,6.70
2022-11-25T04:20:32.808Z,6.70
2022-11-25T04:21:35.836Z,6.70
2022-11-25T04:22:37.867Z,6.60
2022-11-25T04:23:40.813Z,6.60
2022-11-25T04:24:42.765Z,6.60
2022-11-25T04:25:45.659Z,6.70
2022-11-25T04:26:47.548Z,6.70
2022-11-25T04:27:50.509Z,6.70
2022-11-25T04:28:53.071Z,6.70
2022-11-25T04:29:56.142Z,6.70
2022-11-25T04:30:59.509Z,6.70
2022-11-25T04:32:02.492Z,6.60
2022-11-25T04:33:04.482Z,6.70
2022-11-25T04:34:07.419Z,6.70
2022-11-25T04:35:10.785Z,6.70
2022-11-25T04:36:12.859Z,6.70
2022-11-25T04:37:15.771Z,6.70
2022-11-25T04:38:17.813Z,6.80
2022-11-25T04:39:20.893Z,6.70
2022-11-25T04:40:23.130Z,6.70
2022-11-25T04:41:26.076Z,6.60
2022-11-25T04:42:34.708Z,6.60
2022-11-25T04:43:37.699Z,6.60
2022-11-25T04:44:39.696Z,6.70
2022-11-25T04:46:12.494Z,6.70
2022-11-25T04:47:06.049Z,6.60
2022-11-25T04:48:09.044Z,6.60
2022-11-25T04:49:11.670Z,6.50
2022-11-25T04:50:17.044Z,6.60
2022-11-25T04:51:20.046Z,6.60
2022-11-25T04:52:22.151Z,6.70
2022-11-25T04:53:25.395Z,6.70
2022-11-25T04:54:27.348Z,6.60
2022-11-25T04:55:30.534Z,6.60
2022-11-25T04:56:32.656Z,6.60
2022-11-25T04:57:35.563Z,6.60
2022-11-25T04:58:56.018Z,6.60
2022-11-25T04:59:58.005Z,6.60
2022-11-25T05:01:00.940Z,6.70
2022-11-25T05:02:02.990Z,6.60
2022-11-25T05:03:08.321Z,6.60
2022-11-25T05:04:10.329Z,6.70
2022-11-25T05:05:13.387Z,6.70
2022-11-25T05:06:15.412Z,6.80
2022-11-25T05:07:20.478Z,6.70
2022-11-25T05:08:22.443Z,6.60
2022-11-25T05:09:25.346Z,6.60
2022-11-25T05:10:28.473Z,6.70
2022-11-25T05:11:30.677Z,6.60
2022-11-25T05:12:33.669Z,6.60
2022-11-25T05:13:35.564Z,6.60
2022-11-25T05:14:38.682Z,6.60
2022-11-25T05:15:40.656Z,6.60
2022-11-25T05:16:43.638Z,6.60
2022-11-25T05:17:46.621Z,6.60
2022-11-25T05:18:49.910Z,6.60
2022-11-25T05:19:53.270Z,6.60
2022-11-25T05:20:55.358Z,6.70
2022-11-25T05:21:58.647Z,6.60
2022-11-25T05:23:00.632Z,6.60
2022-11-25T05:24:03.623Z,6.60
2022-11-25T05:25:07.036Z,6.70
2022-11-25T05:26:08.996Z,6.70
2022-11-25T05:27:12.749Z,6.70
2022-11-25T05:28:14.921Z,6.70
2022-11-25T05:29:17.824Z,6.70
2022-11-25T05:30:19.932Z,6.60
2022-11-25T05:31:22.875Z,6.60
2022-11-25T05:32:25.001Z,6.60
2022-11-25T05:33:28.347Z,6.50
2022-11-25T05:34:32.719Z,6.50
2022-11-25T05:35:34.644Z,6.60
2022-11-25T05:36:37.949Z,6.60
2022-11-25T05:37:39.915Z,6.60
2022-11-25T05:38:43.599Z,6.70
2022-11-25T05:39:45.552Z,6.70
2022-11-25T05:40:48.471Z,6.60
2022-11-25T05:41:50.512Z,6.60
2022-11-25T05:42:53.452Z,6.60
2022-11-25T05:43:55.580Z,6.50
2022-11-25T05:44:58.556Z,6.50
2022-11-25T05:46:04.402Z,6.50
2022-11-25T05:47:07.412Z,6.50
2022-11-25T05:48:09.505Z,6.50
2022-11-25T05:49:12.504Z,6.50
2022-11-25T05:50:15.928Z,6.50
2022-11-25T05:51:18.867Z,6.50
2022-11-25T05:52:20.779Z,6.60
2022-11-25T05:53:23.704Z,6.60
2022-11-25T05:54:26.832Z,6.70
2022-11-25T05:55:28.748Z,6.70
2022-11-25T05:56:31.721Z,6.60
2022-11-25T05:57:33.716Z,6.60
2022-11-25T05:58:36.620Z,6.60
2022-11-25T05:59:38.536Z,6.60
2022-11-25T06:00:41.438Z,6.60
2022-11-25T06:01:43.407Z,6.50
2022-11-25T06:02:46.563Z,6.80
2022-11-25T06:03:48.679Z,6.50
2022-11-25T06:04:51.742Z,6.50
2022-11-25T06:05:55.789Z,6.60
2022-11-25T06:06:58.785Z,6.70
2022-11-25T06:08:00.777Z,6.70
2022-11-25T06:09:03.818Z,6.60
2022-11-25T06:10:07.304Z,6.60
2022-11-25T06:11:13.830Z,6.60
2022-11-25T06:12:15.789Z,6.70
2022-11-25T06:13:19.112Z,6.70
2022-11-25T06:14:22.155Z,6.80
2022-11-25T06:15:24.156Z,6.80
2022-11-25T06:16:28.241Z,6.70
2022-11-25T06:17:30.759Z,6.90
2022-11-25T06:18:33.711Z,6.80
2022-11-25T06:19:35.687Z,6.90
2022-11-25T06:20:39.144Z,6.80
2022-11-25T06:21:42.468Z,6.80
2022-11-25T06:22:45.461Z,6.80
2022-11-25T06:23:47.694Z,6.80
2022-11-25T06:24:58.930Z,6.80
2022-11-25T06:26:06.869Z,6.80
2022-11-25T06:27:09.831Z,6.70
2022-11-25T06:28:13.154Z,6.90
2022-11-25T06:29:16.495Z,6.80
2022-11-25T06:30:19.247Z,6.80
2022-11-25T06:31:23.561Z,6.80
2022-11-25T06:32:25.868Z,6.80
2022-11-25T06:33:28.874Z,6.80
2022-11-25T06:34:31.818Z,6.80
2022-11-25T06:35:33.803Z,6.80
2022-11-25T06:36:36.783Z,6.80
2022-11-25T06:37:40.303Z,6.80
2022-11-25T06:38:43.360Z,6.80
2022-11-25T06:39:45.312Z,6.80
2022-11-25T06:40:48.435Z,6.90
2022-11-25T06:41:51.449Z,6.80
2022-11-25T06:42:53.446Z,6.80
2022-11-25T06:43:56.824Z,6.80
2022-11-25T06:44:58.804Z,6.80
2022-11-25T06:46:06.758Z,6.80
2022-11-25T06:47:08.786Z,6.80
2022-11-25T06:48:11.729Z,6.70
2022-11-25T06:49:13.713Z,6.70
2022-11-25T06:50:16.782Z,6.70
2022-11-25T06:51:20.076Z,6.70
2022-11-25T06:52:22.459Z,6.60
2022-11-25T06:53:27.068Z,6.60
2022-11-25T06:54:29.222Z,6.60
2022-11-25T06:55:32.930Z,6.70
2022-11-25T06:56:34.939Z,6.60
2022-11-25T06:57:38.042Z,6.60
2022-11-25T06:58:41.020Z,6.60
2022-11-25T06:59:44.026Z,6.70
2022-11-25T07:00:45.947Z,6.70
2022-11-25T07:01:49.163Z,6.70
2022-11-25T07:02:51.479Z,6.70
2022-11-25T07:03:56.065Z,6.70
2022-11-25T07:04:58.017Z,6.70
2022-11-25T07:06:01.397Z,6.70
2022-11-25T07:07:04.535Z,6.70
2022-11-25T07:08:07.545Z,6.70
2022-11-25T07:09:11.943Z,6.70
2022-11-25T07:10:14.869Z,6.80
2022-11-25T07:11:19.104Z,6.80
2022-11-25T07:12:22.070Z,6.80
2022-11-25T07:13:24.982Z,6.70
2022-11-25T07:14:27.961Z,6.70
2022-11-25T07:15:30.016Z,6.70
2022-11-25T07:16:33.778Z,6.70
2022-11-25T07:17:36.687Z,6.70
2022-11-25T07:18:40.190Z,6.70
2022-11-25T07:19:43.104Z,6.70
2022-11-25T07:20:45.121Z,6.60
2022-11-25T07:21:48.380Z,6.60
2022-11-25T07:22:50.321Z,6.60
2022-11-25T07:23:54.284Z,6.70
2022-11-25T07:24:58.565Z,6.60
2022-11-25T07:26:04.532Z,6.80
2022-11-25T07:27:08.189Z,6.60
2022-11-25T07:28:10.091Z,6.60
2022-11-25T07:29:54.163Z,6.60
2022-11-25T07:32:03.399Z,6.60
2022-11-25T07:33:09.313Z,6.50
2022-11-25T07:34:14.516Z,6.60
2022-11-25T07:35:17.558Z,6.70
2022-11-25T07:36:19.783Z,6.60
2022-11-25T07:37:22.741Z,6.60
2022-11-25T07:38:24.893Z,6.60
2022-11-25T07:39:27.840Z,6.70
2022-11-25T07:40:31.168Z,6.60
2022-11-25T07:41:34.837Z,6.70
2022-11-25T07:42:36.768Z,6.70
2022-11-25T07:43:40.516Z,6.70
2022-11-25T07:44:43.472Z,6.80
2022-11-25T07:45:45.427Z,6.80
2022-11-25T07:46:49.835Z,6.90
2022-11-25T07:47:51.838Z,6.90
2022-11-25T07:48:56.293Z,6.80
2022-11-25T07:49:59.185Z,6.80
2022-11-25T07:51:01.130Z,6.70
2022-11-25T07:52:04.516Z,6.60
2022-11-25T07:53:07.431Z,6.60
2022-11-25T07:54:12.706Z,6.70
2022-11-25T07:55:15.749Z,6.60
2022-11-25T07:56:19.232Z,6.70
2022-11-25T07:57:22.208Z,6.80
2022-11-25T07:58:24.218Z,6.70
2022-11-25T07:59:27.235Z,6.70
2022-11-25T08:00:29.211Z,6.70
2022-11-25T08:01:32.495Z,6.80
2022-11-25T08:02:35.517Z,6.70
2022-11-25T08:03:38.844Z,6.70
2022-11-25T08:04:41.805Z,6.80
2022-11-25T08:05:43.781Z,6.80
2022-11-25T08:06:48.629Z,6.80
2022-11-25T08:07:50.665Z,6.60
2022-11-25T08:08:55.499Z,6.60
2022-11-25T08:09:58.543Z,6.70
2022-11-25T08:11:00.513Z,6.80
2022-11-25T08:12:05.042Z,6.70
2022-11-25T08:13:07.049Z,6.80
2022-11-25T08:14:10.386Z,6.80
2022-11-25T08:15:12.404Z,6.80
2022-11-25T08:16:17.436Z,6.80
2022-11-25T08:17:20.498Z,6.80
2022-11-25T08:18:22.432Z,6.90
2022-11-25T08:19:31.133Z,6.90
2022-11-25T08:20:33.435Z,6.90
2022-11-25T08:21:36.430Z,6.90
2022-11-25T08:22:39.382Z,6.90
2022-11-25T08:23:43.257Z,6.90
2022-11-25T08:24:46.208Z,6.90
2022-11-25T08:25:50.681Z,6.90
2022-11-25T08:26:54.982Z,6.90
2022-11-25T08:27:59.428Z,7.00
2022-11-25T08:29:03.068Z,7.00
2022-11-25T08:30:07.390Z,7.00
2022-11-25T08:31:12.039Z,7.00
2022-11-25T08:32:15.204Z,7.10
2022-11-25T08:33:17.426Z,7.00
2022-11-25T08:34:22.554Z,7.00
2022-11-25T08:35:24.506Z,7.10
2022-11-25T08:36:29.345Z,7.00
2022-11-25T08:37:31.970Z,7.00
2022-11-25T08:38:35.260Z,6.90
2022-11-25T08:39:54.043Z,7.00
2022-11-25T08:40:57.588Z,6.90
2022-11-25T08:42:02.898Z,6.90
2022-11-25T08:43:06.242Z,7.00
2022-11-25T08:44:09.964Z,7.00
2022-11-25T08:45:13.582Z,6.90
2022-11-25T08:46:18.851Z,6.80
2022-11-25T08:47:21.862Z,6.90
2022-11-25T08:48:24.826Z,6.90
2022-11-25T08:49:29.288Z,7.00
2022-11-25T08:50:32.412Z,7.00
2022-11-25T08:51:36.650Z,7.10
2022-11-25T08:52:39.604Z,7.10
2022-11-25T08:53:42.581Z,7.10
2022-11-25T08:54:45.581Z,7.10
2022-11-25T08:55:47.805Z,7.10
2022-11-25T08:56:50.888Z,7.10
2022-11-25T08:57:52.923Z,7.10
2022-11-25T08:58:57.768Z,7.10
2022-11-25T09:00:00.694Z,7.10
2022-11-25T09:01:03.301Z,7.20
2022-11-25T09:02:10.193Z,7.20
2022-11-25T09:03:13.743Z,7.20
2022-11-25T09:04:16.786Z,7.20
2022-11-25T09:05:19.751Z,7.20
2022-11-25T09:06:22.300Z,7.20
2022-11-25T09:07:30.501Z,7.20
2022-11-25T09:08:33.836Z,7.10
2022-11-25T09:09:37.325Z,7.10
2022-11-25T09:10:41.653Z,7.20
2022-11-25T09:11:44.718Z,7.10
2022-11-25T09:12:46.859Z,7.20
2022-11-25T09:13:49.922Z,7.10
2022-11-25T09:14:55.240Z,7.20
2022-11-25T09:15:58.301Z,7.20
2022-11-25T09:17:02.013Z,7.20
2022-11-25T09:18:06.637Z,7.30
2022-11-25T09:19:09.811Z,7.30
2022-11-25T09:20:12.509Z,7.30
2022-11-25T09:21:18.564Z,7.30
2022-11-25T09:22:20.753Z,7.30
2022-11-25T09:23:24.123Z,7.40
2022-11-25T09:24:26.044Z,7.30
2022-11-25T09:25:29.651Z,7.30
2022-11-25T09:26:35.561Z,7.30
2022-11-25T09:27:37.648Z,7.30
2022-11-25T09:28:40.653Z,7.30
2022-11-25T09:29:43.561Z,7.30
2022-11-25T09:30:47.988Z,7.30
2022-11-25T09:31:54.748Z,7.30
2022-11-25T09:32:57.162Z,7.30
2022-11-25T09:34:00.161Z,7.30
2022-11-25T09:35:02.219Z,7.30
2022-11-25T09:36:07.042Z,7.30
2022-11-25T09:37:10.126Z,7.20
2022-11-25T09:38:13.178Z,7.30
2022-11-25T09:39:16.379Z,7.30
2022-11-25T09:40:20.665Z,7.30
2022-11-25T09:41:59.852Z,7.30
2022-11-25T09:43:26.380Z,7.30
2022-11-25T09:45:01.055Z,7.30
2022-11-25T09:46:36.122Z,7.30
2022-11-25T09:47:52.925Z,7.30
2022-11-25T09:49:04.544Z,7.40
2022-11-25T09:50:16.104Z,7.40
2022-11-25T09:51:21.492Z,7.50
2022-11-25T09:52:33.366Z,7.40
2022-11-25T09:53:44.176Z,7.50
2022-11-25T09:54:54.686Z,7.50
2022-11-25T09:56:05.800Z,7.50
2022-11-25T09:57:22.722Z,7.50
2022-11-25T09:58:31.193Z,7.50
2022-11-25T09:59:39.462Z,7.50
2022-11-25T10:00:45.464Z,7.60
2022-11-25T10:01:54.406Z,7.60
2022-11-25T10:03:04.753Z,7.60
2022-11-25T10:04:14.524Z,7.60
2022-11-25T10:05:22.667Z,7.70
2022-11-25T10:06:28.489Z,7.70
2022-11-25T10:07:37.852Z,7.60
2022-11-25T10:08:43.691Z,7.60
2022-11-25T10:09:46.709Z,7.70
2022-11-25T10:10:54.026Z,7.70
2022-11-25T10:12:01.049Z,7.60
2022-11-25T10:13:04.889Z,7.50
2022-11-25T10:14:14.363Z,7.50
2022-11-25T10:15:22.016Z,7.40
2022-11-25T10:16:34.429Z,7.50
2022-11-25T10:17:44.225Z,7.40
2022-11-25T10:18:54.232Z,7.40
2022-11-25T10:20:03.409Z,7.40
2022-11-25T10:21:05.861Z,7.40
2022-11-25T10:22:23.966Z,7.40
2022-11-25T10:23:33.274Z,7.40
2022-11-25T10:24:40.931Z,7.50
2022-11-25T10:25:48.358Z,7.50
2022-11-25T10:26:57.507Z,7.60
2022-11-25T10:28:02.477Z,7.70
2022-11-25T10:29:22.573Z,7.80
2022-11-25T10:30:27.283Z,7.60
2022-11-25T10:31:36.075Z,7.60
2022-11-25T10:32:44.924Z,7.50
2022-11-25T10:33:50.082Z,7.50
2022-11-25T10:34:57.792Z,7.60
2022-11-25T10:36:08.020Z,7.50
2022-11-25T10:37:19.955Z,7.60
2022-11-25T10:38:27.893Z,7.50
2022-11-25T10:39:33.905Z,7.50
2022-11-25T10:40:36.870Z,7.40
2022-11-25T10:41:47.178Z,7.50
2022-11-25T10:42:50.311Z,7.50
2022-11-25T10:43:53.127Z,7.50
2022-11-25T10:44:56.810Z,7.70
2022-11-25T10:46:09.547Z,7.70
2022-11-25T10:47:35.485Z,7.70
2022-11-25T10:48:55.677Z,7.80
2022-11-25T10:50:09.493Z,7.80
2022-11-25T10:51:29.265Z,7.90
2022-11-25T10:52:35.476Z,7.90
2022-11-25T10:53:39.398Z,8.00
2022-11-25T10:54:41.781Z,7.90
2022-11-25T10:56:00.599Z,7.90
2022-11-25T10:57:16.143Z,8.00
2022-11-25T10:58:27.819Z,7.90
2022-11-25T10:59:33.236Z,8.00
2022-11-25T11:00:37.852Z,8.00
2022-11-25T11:01:40.856Z,7.90
2022-11-25T11:02:48.352Z,7.90
2022-11-25T11:03:56.275Z,8.00
2022-11-25T11:05:01.649Z,8.00
2022-11-25T11:06:04.745Z,8.00
2022-11-25T11:07:09.377Z,8.00
2022-11-25T11:08:20.004Z,8.00
2022-11-25T11:09:34.824Z,8.00
2022-11-25T11:10:38.175Z,8.00
2022-11-25T11:11:50.053Z,8.10
2022-11-25T11:13:04.626Z,8.00
2022-11-25T11:14:15.500Z,8.10
2022-11-25T11:15:21.498Z,8.10
2022-11-25T11:16:31.582Z,8.10
2022-11-25T11:17:37.478Z,8.10
2022-11-25T11:18:41.901Z,8.30
2022-11-25T11:20:02.086Z,8.10
2022-11-25T11:21:08.553Z,8.10
2022-11-25T11:22:18.964Z,8.20
2022-11-25T11:23:22.445Z,8.20
2022-11-25T11:24:28.985Z,8.20
2022-11-25T11:25:33.024Z,8.20
2022-11-25T11:26:37.411Z,8.20
2022-11-25T11:27:39.356Z,8.30
2022-11-25T11:28:43.372Z,8.30
2022-11-25T11:29:45.380Z,8.30
2022-11-25T11:30:57.347Z,8.30
2022-11-25T11:32:02.663Z,8.40
2022-11-25T11:33:08.034Z,8.30
2022-11-25T11:34:26.803Z,8.30
2022-11-25T11:35:42.199Z,8.30
2022-11-25T11:37:11.829Z,8.20
2022-11-25T11:38:26.513Z,8.30
2022-11-25T11:39:52.309Z,8.30
2022-11-25T11:41:01.517Z,8.10
2022-11-25T11:42:13.422Z,8.10
2022-11-25T11:43:33.382Z,8.10
2022-11-25T11:44:47.790Z,8.10
2022-11-25T11:46:05.321Z,8.10
2022-11-25T11:47:21.944Z,8.20
2022-11-25T11:48:28.613Z,8.20
2022-11-25T11:50:14.126Z,8.20
2022-11-25T11:51:27.409Z,8.20
2022-11-25T11:52:45.272Z,8.10
2022-11-25T11:53:59.465Z,8.20
2022-11-25T11:55:13.213Z,8.20
2022-11-25T11:56:38.272Z,8.20
2022-11-25T11:57:47.377Z,8.30
2022-11-25T11:59:15.145Z,8.30
2022-11-25T12:00:20.702Z,8.30
2022-11-25T12:01:37.780Z,8.30
2022-11-25T12:02:55.844Z,8.20
2022-11-25T12:04:00.781Z,8.20
2022-11-25T12:05:15.441Z,8.30
2022-11-25T12:06:24.217Z,8.30
2022-11-25T12:07:34.586Z,8.30
2022-11-25T12:08:47.692Z,8.30
2022-11-25T12:09:55.500Z,8.30
2022-11-25T12:11:04.038Z,8.30
2022-11-25T12:12:14.486Z,8.30
2022-11-25T12:13:22.923Z,8.20
2022-11-25T12:14:36.418Z,8.10
2022-11-25T12:15:46.996Z,8.10
2022-11-25T12:16:55.951Z,8.10
2022-11-25T12:18:03.840Z,8.20
2022-11-25T12:19:15.397Z,8.20
2022-11-25T12:20:22.335Z,8.20
2022-11-25T12:21:42.226Z,8.20
2022-11-25T12:22:50.364Z,8.30
2022-11-25T12:24:03.804Z,8.30
2022-11-25T12:25:11.685Z,8.30
2022-11-25T12:26:23.274Z,8.30
2022-11-25T12:27:30.715Z,8.40
2022-11-25T12:28:39.680Z,8.40
2022-11-25T12:31:05.196Z,8.50
2022-11-25T12:32:30.999Z,8.60
2022-11-25T12:33:44.653Z,8.60
2022-11-25T12:34:54.879Z,8.70
2022-11-25T12:36:04.868Z,8.70
2022-11-25T12:37:15.166Z,8.60
2022-11-25T12:38:27.036Z,8.60
2022-11-25T12:39:37.127Z,8.60
2022-11-25T12:40:46.689Z,8.60
2022-11-25T12:41:54.295Z,8.60
2022-11-25T12:43:07.764Z,8.60
2022-11-25T12:44:17.533Z,8.60
2022-11-25T12:45:23.522Z,8.60
2022-11-25T12:46:34.509Z,8.50
2022-11-25T12:47:36.447Z,8.60
2022-11-25T12:48:42.288Z,8.60
2022-11-25T12:49:47.953Z,8.60
2022-11-25T12:51:02.906Z,8.60
2022-11-25T12:52:37.683Z,8.60
2022-11-25T12:53:47.200Z,8.60
2022-11-25T12:55:07.257Z,8.60
2022-11-25T12:56:18.473Z,8.60
2022-11-25T12:57:49.298Z,8.60
2022-11-25T12:59:06.311Z,8.60
2022-11-25T13:00:40.543Z,8.60
2022-11-25T13:01:55.911Z,8.60
2022-11-25T13:03:40.854Z,8.50
2022-11-25T13:05:32.962Z,8.60
2022-11-25T13:07:06.683Z,8.60
2022-11-25T13:08:23.071Z,8.60
2022-11-25T13:09:45.089Z,8.60
2022-11-25T13:11:10.022Z,8.50
2022-11-25T13:12:25.061Z,8.50
2022-11-25T13:13:51.133Z,8.60
2022-11-25T13:15:14.753Z,8.60
2022-11-25T13:16:19.988Z,8.60
2022-11-25T13:17:23.606Z,8.60
2022-11-25T13:18:31.196Z,8.60
2022-11-25T13:19:36.906Z,8.60
2022-11-25T13:20:48.908Z,8.70
2022-11-25T13:22:02.694Z,8.60
2022-11-25T13:23:18.644Z,8.70
2022-11-25T13:24:31.720Z,8.50
2022-11-25T13:25:35.376Z,8.50
2022-11-25T13:26:51.740Z,8.50
2022-11-25T13:27:59.138Z,8.50
2022-11-25T13:29:02.857Z,8.60
2022-11-25T13:30:07.415Z,8.60
2022-11-25T13:31:30.961Z,8.60
2022-11-25T13:32:40.507Z,8.60
2022-11-25T13:34:25.306Z,8.60
2022-11-25T13:35:34.525Z,8.60
2022-11-25T13:36:48.904Z,8.60
2022-11-25T13:37:51.519Z,8.60
2022-11-25T13:39:06.769Z,8.60
2022-11-25T13:40:37.027Z,8.60
2022-11-25T13:41:49.560Z,8.60
2022-11-25T13:42:52.771Z,8.60
2022-11-25T13:44:02.322Z,8.60
2022-11-25T13:45:06.248Z,8.60
2022-11-25T13:46:08.342Z,8.60
2022-11-25T13:47:26.113Z,8.60
2022-11-25T13:48:30.811Z,8.60
2022-11-25T13:49:39.423Z,8.60
2022-11-25T13:51:09.487Z,8.70
2022-11-25T13:52:27.607Z,8.60
2022-11-25T13:53:34.558Z,8.70
2022-11-25T13:54:43.415Z,8.60
2022-11-25T13:55:50.143Z,8.60
2022-11-25T13:57:24.685Z,8.60
2022-11-25T13:58:29.425Z,8.50
2022-11-25T13:59:37.354Z,8.50
2022-11-25T14:00:50.407Z,8.40
2022-11-25T14:01:55.351Z,8.50
2022-11-25T14:03:37.135Z,8.50
2022-11-25T14:04:51.280Z,8.60
2022-11-25T14:06:07.440Z,8.60
2022-11-25T14:07:26.798Z,8.50
2022-11-25T14:08:38.880Z,8.40
2022-11-25T14:10:04.142Z,8.40
2022-11-25T14:11:50.940Z,8.40
2022-11-25T14:13:15.566Z,8.40
2022-11-25T14:14:36.148Z,8.40
2022-11-25T14:16:06.526Z,8.40
2022-11-25T14:17:27.547Z,8.40
2022-11-25T14:19:28.140Z,8.40
2022-11-25T14:20:33.746Z,8.50
2022-11-25T14:21:56.421Z,8.40
2022-11-25T14:23:36.177Z,8.40
2022-11-25T14:24:42.835Z,8.40
2022-11-25T14:25:50.088Z,8.40
2022-11-25T14:26:57.360Z,8.40
2022-11-25T14:28:10.385Z,8.50
2022-11-25T14:29:17.486Z,8.60
2022-11-25T14:30:20.840Z,8.50
2022-11-25T14:31:30.418Z,8.50
2022-11-25T14:32:38.980Z,8.50
2022-11-25T14:33:49.494Z,8.40
2022-11-25T14:35:00.853Z,8.50
2022-11-25T14:36:09.223Z,8.50
2022-11-25T14:37:17.848Z,8.40
2022-11-25T14:38:23.328Z,8.40
2022-11-25T14:39:31.245Z,8.50
2022-11-25T14:40:38.973Z,8.60
2022-11-25T14:41:47.928Z,8.50
2022-11-25T14:42:59.301Z,8.50
2022-11-25T14:44:06.095Z,8.60
2022-11-25T14:45:22.612Z,8.50
2022-11-25T14:46:26.433Z,8.50
2022-11-25T14:47:36.061Z,8.50
2022-11-25T14:48:41.149Z,8.40
2022-11-25T14:50:00.082Z,8.40
2022-11-25T14:51:14.787Z,8.40